createdAt,value
2023-09-10T00:01:04.969Z,5.07
2023-09-10T00:03:33.623Z,4.70
2023-09-10T00:06:02.158Z,4.68
2023-09-10T00:08:29.284Z,4.00
2023-09-10T00:10:57.835Z,4.30
2023-09-10T00:13:26.214Z,3.70
2023-09-10T00:15:54.162Z,4.95
2023-09-10T00:18:21.334Z,4.47
2023-09-10T00:20:50.269Z,5.10
2023-09-10T00:23:17.267Z,5.53
2023-09-10T00:25:44.359Z,6.53
2023-09-10T00:28:11.290Z,5.78
2023-09-10T00:30:38.164Z,5.30
2023-09-10T00:33:05.413Z,6.45
2023-09-10T00:35:32.298Z,6.10
2023-09-10T00:38:01.697Z,6.25
2023-09-10T00:40:29.406Z,6.20
2023-09-10T00:42:56.231Z,5.90
2023-09-10T00:45:23.041Z,6.72
2023-09-10T00:47:49.918Z,7.10
2023-09-10T00:50:18.035Z,6.60
2023-09-10T00:52:50.475Z,6.70
2023-09-10T00:55:18.179Z,7.53
2023-09-10T00:57:45.155Z,6.40
2023-09-10T01:00:13.536Z,7.43
2023-09-10T01:02:44.730Z,6.68
2023-09-10T01:05:13.013Z,6.40
2023-09-10T01:07:40.574Z,6.07
2023-09-10T01:10:08.858Z,6.05
2023-09-10T01:12:53.718Z,5.82
2023-09-10T01:15:31.148Z,6.15
2023-09-10T01:18:13.286Z,5.72
2023-09-10T01:21:20.525Z,5.10
2023-09-10T01:24:25.031Z,5.55
2023-09-10T01:26:59.248Z,5.57
2023-09-10T01:29:26.885Z,5.72
2023-09-10T01:32:01.540Z,4.95
2023-09-10T01:34:43.113Z,5.55
2023-09-10T01:37:47.286Z,5.10
2023-09-10T01:40:22.043Z,4.53
2023-09-10T01:42:52.078Z,5.25
2023-09-10T01:45:20.110Z,4.97
2023-09-10T01:47:47.530Z,5.50
2023-09-10T01:50:15.454Z,5.25
2023-09-10T01:52:42.785Z,4.90
2023-09-10T01:55:10.108Z,4.97
2023-09-10T01:57:36.979Z,4.47
2023-09-10T02:00:06.774Z,5.57
2023-09-10T02:02:33.692Z,5.40
2023-09-10T02:05:00.787Z,4.25
2023-09-10T02:07:27.664Z,5.20
2023-09-10T02:09:54.569Z,4.57
2023-09-10T02:12:21.379Z,5.10
2023-09-10T02:14:49.855Z,4.88
2023-09-10T02:17:16.792Z,5.22
2023-09-10T02:19:43.794Z,4.85
2023-09-10T02:22:10.617Z,4.82
2023-09-10T02:24:37.422Z,5.32
2023-09-10T02:27:04.421Z,5.97
2023-09-10T02:29:31.254Z,4.35
2023-09-10T02:31:58.237Z,4.70
2023-09-10T02:34:25.140Z,4.47
2023-09-10T02:36:51.984Z,4.55
2023-09-10T02:39:18.788Z,4.63
2023-09-10T02:41:46.369Z,5.25
2023-09-10T02:44:13.221Z,4.95
2023-09-10T02:46:40.087Z,4.80
2023-09-10T02:49:06.947Z,4.30
2023-09-10T02:51:33.749Z,4.78
2023-09-10T02:54:00.603Z,5.25
2023-09-10T02:56:27.560Z,5.05
2023-09-10T02:58:54.445Z,4.68
2023-09-10T03:01:21.408Z,4.57
2023-09-10T03:03:50.220Z,4.78
2023-09-10T03:06:17.126Z,4.55
2023-09-10T03:08:45.734Z,4.65
2023-09-10T03:11:12.631Z,4.50
2023-09-10T03:13:39.494Z,5.20
2023-09-10T03:16:06.370Z,4.78
2023-09-10T03:18:33.270Z,4.88
2023-09-10T03:21:04.224Z,4.90
2023-09-10T03:23:31.097Z,4.38
2023-09-10T03:25:57.968Z,4.63
2023-09-10T03:28:24.839Z,4.78
2023-09-10T03:30:58.456Z,4.85
2023-09-10T03:33:25.432Z,5.22
2023-09-10T03:35:52.343Z,5.18
2023-09-10T03:38:19.204Z,5.00
2023-09-10T03:40:46.175Z,4.60
2023-09-10T03:43:13.064Z,5.25
2023-09-10T03:45:39.848Z,4.70
2023-09-10T03:48:07.234Z,5.15
2023-09-10T03:50:34.124Z,4.95
2023-09-10T03:53:00.971Z,5.20
2023-09-10T03:55:27.847Z,5.63
2023-09-10T03:57:54.743Z,6.05
2023-09-10T04:00:21.861Z,5.13
2023-09-10T04:02:48.906Z,5.32
2023-09-10T04:05:16.264Z,5.25
2023-09-10T04:07:43.193Z,6.07
2023-09-10T04:10:10.424Z,5.53
2023-09-10T04:12:38.152Z,5.60
2023-09-10T04:15:05.831Z,5.28
2023-09-10T04:17:32.855Z,5.55
2023-09-10T04:20:00.074Z,6.03
2023-09-10T04:22:27.469Z,5.22
2023-09-10T04:24:54.277Z,4.60
2023-09-10T04:27:21.118Z,4.85
2023-09-10T04:29:47.899Z,5.28
2023-09-10T04:32:14.769Z,5.68
2023-09-10T04:34:41.789Z,5.22
2023-09-10T04:37:08.682Z,4.80
2023-09-10T04:39:35.504Z,5.22
2023-09-10T04:42:04.053Z,5.55
2023-09-10T04:44:30.893Z,5.55
2023-09-10T04:46:57.720Z,4.95
2023-09-10T04:49:24.892Z,4.97
2023-09-10T04:51:51.697Z,5.25
2023-09-10T04:54:18.479Z,5.38
2023-09-10T04:56:47.098Z,5.50
2023-09-10T04:59:14.478Z,6.13
2023-09-10T05:01:41.339Z,5.55
2023-09-10T05:04:08.297Z,6.10
2023-09-10T05:06:36.004Z,6.32
2023-09-10T05:09:03.270Z,5.97
2023-09-10T05:11:30.098Z,6.63
2023-09-10T05:13:57.003Z,6.30
2023-09-10T05:16:23.924Z,5.72
2023-09-10T05:18:50.790Z,7.03
2023-09-10T05:21:17.675Z,7.55
2023-09-10T05:23:44.781Z,6.25
2023-09-10T05:26:11.645Z,7.50
2023-09-10T05:28:38.708Z,6.82
2023-09-10T05:31:06.503Z,6.90
2023-09-10T05:33:34.693Z,7.07
2023-09-10T05:36:01.993Z,7.35
2023-09-10T05:38:28.863Z,6.43
2023-09-10T05:41:02.208Z,6.78
2023-09-10T05:43:32.712Z,8.02
2023-09-10T05:45:59.718Z,10.70
2023-09-10T05:48:26.927Z,10.32
2023-09-10T05:50:59.931Z,10.02
2023-09-10T05:53:26.747Z,10.85
2023-09-10T05:55:53.636Z,11.77
2023-09-10T05:58:21.932Z,12.05
2023-09-10T06:00:52.162Z,12.98
2023-09-10T06:03:19.155Z,12.88
2023-09-10T06:05:46.182Z,12.88
2023-09-10T06:08:13.074Z,12.25
2023-09-10T06:10:39.902Z,13.20
2023-09-10T06:13:06.698Z,14.02
2023-09-10T06:15:33.555Z,14.10
2023-09-10T06:18:00.414Z,16.98
2023-09-10T06:20:27.413Z,14.73
2023-09-10T06:22:54.365Z,14.55
2023-09-10T06:25:21.280Z,16.48
2023-09-10T06:27:48.353Z,15.60
2023-09-10T06:30:15.208Z,16.65
2023-09-10T06:32:42.069Z,20.40
2023-09-10T06:35:09.288Z,21.58
2023-09-10T06:37:36.258Z,20.38
2023-09-10T06:40:03.964Z,24.20
2023-09-10T06:42:30.831Z,23.17
2023-09-10T06:44:57.624Z,23.60
2023-09-10T06:47:24.468Z,24.40
2023-09-10T06:49:51.342Z,24.67
2023-09-10T06:52:18.202Z,24.35
2023-09-10T06:54:45.062Z,24.23
2023-09-10T06:57:11.881Z,24.95
2023-09-10T06:59:38.671Z,24.10
2023-09-10T07:02:05.552Z,25.23
2023-09-10T07:04:32.620Z,24.00
2023-09-10T07:06:59.469Z,24.85
2023-09-10T07:09:26.295Z,25.60
2023-09-10T07:11:54.597Z,22.98
2023-09-10T07:14:22.900Z,21.65
2023-09-10T07:16:50.292Z,23.23
2023-09-10T07:19:17.561Z,26.92
2023-09-10T07:21:44.510Z,23.73
2023-09-10T07:24:11.642Z,26.90
2023-09-10T07:26:38.864Z,26.30
2023-09-10T07:29:10.104Z,25.10
2023-09-10T07:31:37.620Z,25.73
2023-09-10T07:34:05.616Z,23.67
2023-09-10T07:36:32.473Z,24.63
2023-09-10T07:38:59.415Z,26.88
2023-09-10T07:41:26.303Z,24.58
2023-09-10T07:43:53.154Z,21.83
2023-09-10T07:46:20.375Z,24.05
2023-09-10T07:48:47.197Z,23.73
2023-09-10T07:51:14.045Z,25.38
2023-09-10T07:53:40.904Z,24.38
2023-09-10T07:56:08.062Z,23.38
2023-09-10T07:58:35.030Z,22.45
2023-09-10T08:01:02.141Z,25.40
2023-09-10T08:03:29.183Z,21.13
2023-09-10T08:05:56.562Z,22.27
2023-09-10T08:08:23.495Z,20.55
2023-09-10T08:10:50.436Z,21.95
2023-09-10T08:13:17.442Z,20.65
2023-09-10T08:15:44.698Z,22.63
2023-09-10T08:18:13.469Z,21.35
2023-09-10T08:20:42.140Z,20.38
2023-09-10T08:23:09.823Z,20.60
2023-09-10T08:25:37.420Z,20.05
2023-09-10T08:28:04.746Z,21.20
2023-09-10T08:30:32.359Z,18.55
2023-09-10T08:32:59.342Z,18.08
2023-09-10T08:35:47.863Z,17.13
2023-09-10T08:38:14.896Z,17.65
2023-09-10T08:41:11.017Z,15.52
2023-09-10T08:43:51.589Z,14.52
2023-09-10T08:46:20.867Z,15.73
2023-09-10T08:48:48.034Z,14.40
2023-09-10T08:51:15.887Z,13.18
2023-09-10T08:53:44.368Z,14.63
2023-09-10T08:56:12.672Z,14.23
2023-09-10T08:58:41.992Z,13.40
2023-09-10T09:01:13.564Z,14.90
2023-09-10T09:03:40.485Z,14.23
2023-09-10T09:06:07.904Z,13.27
2023-09-10T09:08:37.370Z,13.30
2023-09-10T09:11:10.068Z,11.38
2023-09-10T09:13:45.449Z,11.00
2023-09-10T09:16:12.982Z,11.05
2023-09-10T09:18:41.676Z,11.82
2023-09-10T09:21:25.170Z,9.95
2023-09-10T09:24:02.965Z,8.90
2023-09-10T09:26:30.915Z,9.77
2023-09-10T09:28:58.525Z,9.20
2023-09-10T09:31:26.200Z,8.80
2023-09-10T09:33:54.115Z,8.70
2023-09-10T09:36:27.346Z,8.80
2023-09-10T09:38:55.569Z,8.43
2023-09-10T09:41:22.430Z,8.93
2023-09-10T09:43:49.294Z,6.68
2023-09-10T09:46:17.475Z,7.88
2023-09-10T09:48:45.625Z,8.20
2023-09-10T09:51:15.585Z,7.97
2023-09-10T09:53:44.439Z,8.65
2023-09-10T09:56:11.735Z,7.32
2023-09-10T09:58:38.853Z,8.25
2023-09-10T10:01:07.385Z,6.88
2023-09-10T10:03:34.816Z,6.53
2023-09-10T10:06:03.799Z,6.75
2023-09-10T10:08:32.729Z,5.80
2023-09-10T10:10:59.955Z,7.20
2023-09-10T10:13:28.443Z,6.30
2023-09-10T10:15:57.141Z,6.88
2023-09-10T10:18:26.071Z,5.90
2023-09-10T10:20:54.333Z,5.40
2023-09-10T10:23:26.683Z,6.63
2023-09-10T10:25:55.153Z,6.18
2023-09-10T10:28:22.902Z,7.28
2023-09-10T10:31:18.347Z,7.20
2023-09-10T10:34:06.533Z,6.20
2023-09-10T10:37:13.437Z,7.93
2023-09-10T10:40:12.159Z,6.97
2023-09-10T10:43:04.233Z,6.88
2023-09-10T10:45:33.573Z,6.60
2023-09-10T10:48:05.946Z,6.47
2023-09-10T10:50:36.445Z,6.53
2023-09-10T10:53:21.060Z,7.18
2023-09-10T10:58:22.179Z,7.05
2023-09-10T11:00:51.337Z,6.28
2023-09-10T11:03:20.552Z,7.32
2023-09-10T11:05:53.918Z,6.57
2023-09-10T11:08:28.440Z,7.25
2023-09-10T11:10:56.069Z,5.68
2023-09-10T11:13:26.179Z,6.60
2023-09-10T11:16:05.567Z,6.28
2023-09-10T11:18:38.739Z,5.78
2023-09-10T11:21:16.999Z,7.55
2023-09-10T11:23:55.807Z,6.50
2023-09-10T11:26:22.590Z,5.55
2023-09-10T11:28:56.695Z,5.95
2023-09-10T11:31:43.017Z,6.95
2023-09-10T11:34:19.414Z,6.78
2023-09-10T11:36:52.092Z,5.57
2023-09-10T11:39:20.583Z,6.13
2023-09-10T11:41:55.545Z,6.05
2023-09-10T11:44:22.670Z,6.18
2023-09-10T11:46:52.786Z,5.70
2023-09-10T11:49:22.364Z,5.40
2023-09-10T11:51:51.742Z,5.85
2023-09-10T11:54:19.595Z,4.82
2023-09-10T11:56:57.415Z,4.93
2023-09-10T11:59:33.514Z,4.88
2023-09-10T12:02:00.996Z,4.93
2023-09-10T12:04:34.699Z,4.43
2023-09-10T12:07:02.700Z,4.65
2023-09-10T12:09:31.683Z,4.35
2023-09-10T12:12:12.202Z,4.50
2023-09-10T12:14:39.439Z,3.80
2023-09-10T12:17:06.497Z,3.80
2023-09-10T12:19:35.140Z,3.58
2023-09-10T12:22:04.422Z,3.70
2023-09-10T12:24:31.517Z,3.85
2023-09-10T12:26:59.601Z,3.45
2023-09-10T12:29:26.469Z,3.00
2023-09-10T12:31:57.822Z,3.42
2023-09-10T12:34:26.056Z,3.28
2023-09-10T12:36:53.539Z,3.25
2023-09-10T12:39:25.888Z,3.22
2023-09-10T12:42:02.478Z,3.42
2023-09-10T12:44:31.887Z,2.90
2023-09-10T12:47:00.209Z,3.05
2023-09-10T12:49:27.713Z,2.88
2023-09-10T12:51:54.547Z,3.03
2023-09-10T12:54:21.675Z,2.80
2023-09-10T12:56:52.744Z,3.00
2023-09-10T12:59:23.343Z,3.35
2023-09-10T13:01:51.171Z,3.17
2023-09-10T13:04:18.536Z,3.38
2023-09-10T13:06:45.876Z,3.08
2023-09-10T13:09:12.902Z,2.90
2023-09-10T13:11:41.099Z,2.60
2023-09-10T13:14:07.953Z,2.60
2023-09-10T13:16:34.805Z,2.63
2023-09-10T13:19:01.872Z,2.88
2023-09-10T13:21:28.749Z,3.03
2023-09-10T13:23:55.684Z,2.80
2023-09-10T13:26:22.645Z,2.85
2023-09-10T13:28:49.496Z,2.70
2023-09-10T13:31:16.578Z,2.65
2023-09-10T13:33:43.532Z,2.72
2023-09-10T13:36:11.699Z,2.97
2023-09-10T13:38:38.705Z,3.13
2023-09-10T13:41:05.717Z,2.75
2023-09-10T13:43:32.578Z,2.80
2023-09-10T13:45:59.490Z,2.95
2023-09-10T13:48:26.379Z,2.90
2023-09-10T13:50:53.232Z,2.95
2023-09-10T13:53:20.090Z,3.72
2023-09-10T13:55:47.155Z,3.17
2023-09-10T13:58:14.307Z,3.90
2023-09-10T14:00:42.234Z,3.22
2023-09-10T14:03:09.160Z,3.20
2023-09-10T14:05:36.068Z,3.30
2023-09-10T14:08:03.740Z,4.22
2023-09-10T14:10:30.676Z,3.15
2023-09-10T14:12:57.475Z,3.28
2023-09-10T14:15:24.303Z,3.03
2023-09-10T14:17:52.160Z,3.47
2023-09-10T14:20:19.090Z,3.13
2023-09-10T14:22:45.964Z,3.53
2023-09-10T14:25:16.473Z,3.25
2023-09-10T14:27:44.461Z,2.92
2023-09-10T14:30:14.061Z,3.53
2023-09-10T14:32:41.905Z,3.47
2023-09-10T14:35:09.155Z,3.88
2023-09-10T14:37:36.188Z,3.08
2023-09-10T14:40:05.585Z,3.13
2023-09-10T14:42:33.607Z,3.20
2023-09-10T14:45:00.723Z,3.25
2023-09-10T14:47:27.663Z,2.92
2023-09-10T14:49:54.636Z,2.72
2023-09-10T14:52:21.503Z,2.63
2023-09-10T14:54:48.320Z,2.95
2023-09-10T14:57:15.544Z,2.38
2023-09-10T14:59:42.380Z,2.63
2023-09-10T15:02:09.739Z,2.30
2023-09-10T15:04:36.580Z,2.35
2023-09-10T15:07:03.423Z,2.38
2023-09-10T15:09:30.464Z,2.60
2023-09-10T15:11:57.359Z,2.40
2023-09-10T15:14:24.253Z,2.22
2023-09-10T15:16:51.142Z,3.00
2023-09-10T15:19:18.282Z,2.65
2023-09-10T15:21:45.161Z,2.42
2023-09-10T15:24:11.983Z,2.55
2023-09-10T15:26:38.847Z,3.22
2023-09-10T15:29:05.809Z,3.35
2023-09-10T15:31:37.686Z,2.83
2023-09-10T15:34:05.455Z,3.40
2023-09-10T15:36:33.079Z,2.72
2023-09-10T15:39:00.094Z,2.80
2023-09-10T15:41:33.050Z,2.65
2023-09-10T15:44:04.521Z,2.80
2023-09-10T15:46:31.446Z,2.90
2023-09-10T15:49:00.358Z,2.70
2023-09-10T15:51:27.420Z,3.67
2023-09-10T15:53:54.279Z,2.88
2023-09-10T15:56:21.136Z,3.70
2023-09-10T15:58:48.015Z,3.72
2023-09-10T16:01:14.877Z,3.25
2023-09-10T16:03:42.244Z,3.17
2023-09-10T16:06:09.401Z,3.00
2023-09-10T16:08:36.552Z,2.92
2023-09-10T16:11:03.571Z,3.30
2023-09-10T16:13:30.377Z,3.00
2023-09-10T16:15:57.209Z,2.90
2023-09-10T16:18:24.007Z,3.05
2023-09-10T16:20:50.952Z,2.70
2023-09-10T16:23:18.567Z,3.03
2023-09-10T16:25:45.794Z,3.30
2023-09-10T16:28:12.666Z,2.65
2023-09-10T16:30:39.484Z,2.90
2023-09-10T16:33:06.492Z,3.00
2023-09-10T16:35:33.392Z,2.83
2023-09-10T16:38:00.344Z,2.50
2023-09-10T16:40:27.559Z,2.33
2023-09-10T16:42:54.379Z,2.28
2023-09-10T16:45:21.215Z,2.78
2023-09-10T16:47:48.105Z,2.15
2023-09-10T16:50:15.552Z,2.47
2023-09-10T16:52:42.411Z,2.35
2023-09-10T16:55:09.774Z,2.40
2023-09-10T16:57:37.238Z,1.95
2023-09-10T17:00:05.159Z,2.47
2023-09-10T17:02:32.183Z,2.60
2023-09-10T17:04:59.107Z,2.60
2023-09-10T17:07:25.924Z,2.80
2023-09-10T17:09:52.798Z,2.65
2023-09-10T17:12:19.605Z,2.90
2023-09-10T17:14:51.346Z,2.75
2023-09-10T17:17:18.289Z,2.67
2023-09-10T17:19:45.160Z,2.50
2023-09-10T17:22:11.982Z,2.65
2023-09-10T17:24:39.040Z,2.42
2023-09-10T17:27:06.200Z,2.42
2023-09-10T17:29:33.855Z,2.42
2023-09-10T17:32:00.996Z,3.00
2023-09-10T17:34:27.833Z,1.98
2023-09-10T17:36:54.733Z,2.47
2023-09-10T17:39:21.558Z,2.65
2023-09-10T17:41:48.408Z,2.80
2023-09-10T17:44:16.091Z,2.45
2023-09-10T17:46:43.082Z,2.90
2023-09-10T17:49:09.868Z,2.60
2023-09-10T17:51:36.696Z,2.85
2023-09-10T17:54:03.607Z,2.67
2023-09-10T17:56:30.556Z,2.38
2023-09-10T17:58:57.809Z,2.70
2023-09-10T18:01:26.167Z,2.72
2023-09-10T18:03:53.827Z,2.85
2023-09-10T18:06:20.741Z,3.45
2023-09-10T18:08:47.631Z,3.30
2023-09-10T18:11:15.112Z,2.67
2023-09-10T18:13:43.043Z,2.78
2023-09-10T18:16:10.360Z,3.08
2023-09-10T18:18:37.258Z,3.28
2023-09-10T18:21:04.261Z,3.00
2023-09-10T18:23:31.117Z,3.13
2023-09-10T18:25:58.022Z,3.03
2023-09-10T18:28:24.841Z,3.17
2023-09-10T18:30:53.423Z,3.40
2023-09-10T18:33:20.357Z,3.00
2023-09-10T18:35:49.363Z,2.80
2023-09-10T18:38:16.564Z,3.03
2023-09-10T18:40:44.916Z,3.05
2023-09-10T18:43:12.262Z,3.17
2023-09-10T18:45:39.160Z,3.10
2023-09-10T18:48:06.606Z,2.83
2023-09-10T18:50:33.571Z,3.10
2023-09-10T18:53:00.579Z,2.95
2023-09-10T18:55:27.541Z,3.55
2023-09-10T18:57:54.503Z,3.38
2023-09-10T19:00:21.481Z,3.42
2023-09-10T19:02:48.490Z,2.67
2023-09-10T19:05:15.577Z,3.35
2023-09-10T19:07:44.042Z,2.80
2023-09-10T19:10:11.023Z,2.92
2023-09-10T19:12:37.832Z,3.60
2023-09-10T19:15:05.009Z,3.15
2023-09-10T19:17:31.937Z,3.55
2023-09-10T19:19:58.863Z,3.90
2023-09-10T19:22:25.707Z,3.53
2023-09-10T19:24:52.664Z,3.83
2023-09-10T19:27:19.485Z,3.97
2023-09-10T19:29:46.294Z,3.35
2023-09-10T19:32:13.750Z,3.47
2023-09-10T19:34:40.613Z,3.65
2023-09-10T19:37:08.018Z,3.50
2023-09-10T19:39:34.821Z,3.60
2023-09-10T19:42:02.225Z,3.58
2023-09-10T19:44:29.164Z,4.10
2023-09-10T19:46:56.045Z,3.88
2023-09-10T19:49:24.079Z,3.85
2023-09-10T19:51:54.577Z,3.78
2023-09-10T19:54:21.496Z,3.75
2023-09-10T19:56:48.369Z,3.97
2023-09-10T19:59:15.393Z,3.63
2023-09-10T20:01:44.797Z,3.63
2023-09-10T20:04:12.815Z,4.30
2023-09-10T20:06:41.626Z,3.88
2023-09-10T20:09:08.808Z,4.25
2023-09-10T20:11:36.163Z,3.95
2023-09-10T20:14:03.936Z,4.50
2023-09-10T20:16:30.813Z,3.83
2023-09-10T20:18:57.656Z,3.70
2023-09-10T20:21:24.498Z,4.00
2023-09-10T20:23:51.493Z,3.47
2023-09-10T20:26:18.387Z,4.32
2023-09-10T20:28:45.355Z,3.92
2023-09-10T20:31:12.255Z,3.65
2023-09-10T20:33:39.642Z,4.18
2023-09-10T20:36:08.657Z,4.38
2023-09-10T20:38:36.155Z,4.20
2023-09-10T20:41:12.866Z,4.20
2023-09-10T20:43:41.228Z,4.38
2023-09-10T20:46:08.560Z,4.10
2023-09-10T20:48:35.547Z,4.35
2023-09-10T20:51:07.824Z,3.92
2023-09-10T20:53:36.961Z,4.35
2023-09-10T20:56:04.529Z,4.00
2023-09-10T20:58:31.744Z,3.78
2023-09-10T21:00:59.633Z,4.10
2023-09-10T21:03:29.558Z,4.10
2023-09-10T21:05:59.137Z,4.25
2023-09-10T21:08:26.867Z,4.18
2023-09-10T21:10:53.866Z,4.40
2023-09-10T21:13:20.674Z,4.25
2023-09-10T21:15:47.607Z,4.30
2023-09-10T21:18:15.880Z,4.30
2023-09-10T21:20:43.194Z,4.45
2023-09-10T21:23:10.252Z,4.55
2023-09-10T21:25:37.882Z,4.68
2023-09-10T21:28:07.864Z,4.80
2023-09-10T21:30:34.673Z,4.70
2023-09-10T21:33:01.841Z,3.88
2023-09-10T21:35:28.986Z,4.53
2023-09-10T21:37:55.788Z,4.28
2023-09-10T21:40:22.616Z,4.10
2023-09-10T21:42:49.460Z,4.78
2023-09-10T21:45:16.344Z,4.43
2023-09-10T21:47:43.271Z,4.68
2023-09-10T21:50:10.472Z,4.70
2023-09-10T21:52:37.615Z,4.53
2023-09-10T21:55:04.897Z,4.40
2023-09-10T21:57:31.830Z,4.97
2023-09-10T21:59:58.643Z,5.13
2023-09-10T22:02:25.610Z,4.13
2023-09-10T22:04:53.678Z,4.47
2023-09-10T22:07:20.501Z,4.43
2023-09-10T22:09:47.448Z,4.60
2023-09-10T22:12:14.368Z,4.72
2023-09-10T22:14:41.285Z,4.57
2023-09-10T22:17:08.136Z,4.45
2023-09-10T22:19:34.965Z,4.68
2023-09-10T22:22:01.914Z,4.57
2023-09-10T22:24:28.842Z,4.72
2023-09-10T22:26:55.649Z,5.60
2023-09-10T22:29:22.755Z,4.63
2023-09-10T22:31:49.751Z,4.60
2023-09-10T22:34:16.634Z,4.97
2023-09-10T22:36:43.503Z,4.75
2023-09-10T22:39:10.390Z,4.97
2023-09-10T22:41:37.285Z,5.30
2023-09-10T22:44:04.383Z,5.25
2023-09-10T22:46:31.390Z,5.38
2023-09-10T22:48:58.284Z,5.00
2023-09-10T22:51:25.132Z,5.18
2023-09-10T22:53:52.484Z,4.05
2023-09-10T22:56:21.328Z,4.57
2023-09-10T22:58:48.809Z,5.45
2023-09-10T23:01:17.806Z,5.03
2023-09-10T23:03:45.212Z,5.25
2023-09-10T23:06:12.453Z,5.43
2023-09-10T23:08:40.051Z,6.18
2023-09-10T23:11:07.620Z,5.07
2023-09-10T23:13:35.734Z,4.80
2023-09-10T23:16:04.070Z,5.85
2023-09-10T23:18:31.212Z,4.72
2023-09-10T23:20:58.151Z,4.90
2023-09-10T23:23:25.085Z,4.80
2023-09-10T23:25:52.108Z,5.10
2023-09-10T23:28:18.992Z,5.55
2023-09-10T23:30:45.787Z,5.65
2023-09-10T23:33:12.717Z,5.28
2023-09-10T23:35:39.910Z,5.82
2023-09-10T23:38:10.112Z,5.45
2023-09-10T23:40:38.584Z,5.38
2023-09-10T23:43:05.718Z,5.78
2023-09-10T23:45:32.748Z,6.20
2023-09-10T23:47:59.971Z,6.30
2023-09-10T23:50:27.005Z,5.43
2023-09-10T23:52:53.882Z,5.63
2023-09-10T23:55:20.728Z,5.90
2023-09-10T23:57:47.613Z,5.25
